createdAt,value
2022-09-24T00:00:56.611Z,97.90
2022-09-24T00:03:45.489Z,98.00
2022-09-24T00:06:35.397Z,98.10
2022-09-24T00:09:22.640Z,98.10
2022-09-24T00:12:13.001Z,98.10
2022-09-24T00:14:58.886Z,98.10
2022-09-24T00:17:44.898Z,98.00
2022-09-24T00:20:31.945Z,98.10
2022-09-24T00:23:18.047Z,98.30
2022-09-24T00:26:22.838Z,98.40
2022-09-24T00:29:11.831Z,98.50
2022-09-24T00:31:57.805Z,98.60
2022-09-24T00:34:43.580Z,98.50
2022-09-24T00:37:29.679Z,98.80
2022-09-24T00:40:15.883Z,98.80
2022-09-24T00:43:02.888Z,98.90
2022-09-24T00:45:51.510Z,99.00
2022-09-24T00:48:41.019Z,99.00
2022-09-24T00:51:29.190Z,99.00
2022-09-24T00:54:23.219Z,99.00
2022-09-24T00:57:09.747Z,98.80
2022-09-24T00:59:56.929Z,98.70
2022-09-24T01:02:46.706Z,98.70
2022-09-24T01:05:33.336Z,98.70
2022-09-24T01:08:21.053Z,98.80
2022-09-24T01:11:23.270Z,99.00
2022-09-24T01:14:27.662Z,99.20
2022-09-24T01:17:52.315Z,99.30
2022-09-24T01:20:41.546Z,99.20
2022-09-24T01:23:54.759Z,99.20
2022-09-24T01:27:05.504Z,99.50
2022-09-24T01:30:01.643Z,99.40
2022-09-24T01:32:54.031Z,99.50
2022-09-24T01:36:08.502Z,99.30
2022-09-24T01:38:56.165Z,99.20
2022-09-24T01:41:43.322Z,99.30
2022-09-24T01:44:30.403Z,99.20
2022-09-24T01:47:22.586Z,99.60
2022-09-24T01:50:12.370Z,99.70
2022-09-24T01:53:06.924Z,99.60
2022-09-24T01:56:00.685Z,99.50
2022-09-24T01:59:12.873Z,99.60
2022-09-24T02:02:05.998Z,99.60
2022-09-24T02:04:58.468Z,99.70
2022-09-24T02:08:10.954Z,99.70
2022-09-24T02:11:08.147Z,99.50
2022-09-24T02:14:00.845Z,99.50
2022-09-24T02:16:50.638Z,99.60
2022-09-24T02:19:39.150Z,99.70
2022-09-24T02:22:26.577Z,99.70
2022-09-24T02:25:18.343Z,99.60
2022-09-24T02:28:04.415Z,99.70
2022-09-24T02:30:55.057Z,99.70
2022-09-24T02:34:04.028Z,99.70
2022-09-24T02:36:57.921Z,99.60
2022-09-24T02:39:44.209Z,99.70
2022-09-24T02:42:31.398Z,99.70
2022-09-24T02:45:17.766Z,99.70
2022-09-24T02:48:03.706Z,99.70
2022-09-24T02:50:49.951Z,99.80
2022-09-24T02:53:36.219Z,99.80
2022-09-24T02:56:22.096Z,99.80
2022-09-24T02:59:08.705Z,99.90
2022-09-24T03:01:54.793Z,99.80
2022-09-24T03:04:40.942Z,99.90
2022-09-24T03:07:26.830Z,99.90
2022-09-24T03:10:13.202Z,99.90
2022-09-24T03:12:59.235Z,99.90
2022-09-24T03:15:46.496Z,99.90
2022-09-24T03:18:33.835Z,99.90
2022-09-24T03:21:22.407Z,99.90
2022-09-24T03:24:08.625Z,99.90
2022-09-24T03:26:54.519Z,99.90
2022-09-24T03:29:59.052Z,99.90
2022-09-24T03:32:45.327Z,99.90
2022-09-24T03:35:31.225Z,99.90
2022-09-24T03:38:17.206Z,99.90
2022-09-24T03:41:04.669Z,99.90
2022-09-24T03:43:50.697Z,99.90
2022-09-24T03:46:36.932Z,99.90
2022-09-24T03:49:23.664Z,99.90
2022-09-24T03:52:09.882Z,99.90
2022-09-24T03:54:56.026Z,99.90
2022-09-24T03:57:42.046Z,99.90
2022-09-24T04:00:28.133Z,99.90
2022-09-24T04:03:14.466Z,99.90
2022-09-24T04:06:00.809Z,99.90
2022-09-24T04:08:46.831Z,99.90
2022-09-24T04:11:35.310Z,99.90
2022-09-24T04:14:21.305Z,99.90
2022-09-24T04:17:07.367Z,99.90
2022-09-24T04:19:54.409Z,99.90
2022-09-24T04:22:40.676Z,99.90
2022-09-24T04:25:30.679Z,99.90
2022-09-24T04:28:16.894Z,99.90
2022-09-24T04:31:02.985Z,99.90
2022-09-24T04:33:49.333Z,99.90
2022-09-24T04:36:35.280Z,99.90
2022-09-24T04:39:26.562Z,99.90
2022-09-24T04:42:17.717Z,99.90
2022-09-24T04:45:04.421Z,99.90
2022-09-24T04:47:53.452Z,99.90
2022-09-24T04:50:44.752Z,99.90
2022-09-24T04:53:32.971Z,99.90
2022-09-24T04:56:19.186Z,99.90
2022-09-24T04:59:05.274Z,99.90
2022-09-24T05:01:51.540Z,99.90
2022-09-24T05:04:37.778Z,99.90
2022-09-24T05:07:23.587Z,99.90
2022-09-24T05:10:09.672Z,99.90
2022-09-24T05:12:56.165Z,99.90
2022-09-24T05:15:43.488Z,99.90
2022-09-24T05:18:29.715Z,99.90
2022-09-24T05:21:15.815Z,99.90
2022-09-24T05:24:02.232Z,99.90
2022-09-24T05:27:07.028Z,99.90
2022-09-24T05:29:52.978Z,99.90
2022-09-24T05:32:39.162Z,99.90
2022-09-24T05:35:25.502Z,99.90
2022-09-24T05:38:11.405Z,99.90
2022-09-24T05:40:57.816Z,99.90
2022-09-24T05:43:43.880Z,99.90
2022-09-24T05:46:29.823Z,99.90
2022-09-24T05:49:16.190Z,99.90
2022-09-24T05:52:02.497Z,99.90
2022-09-24T05:54:48.681Z,99.90
2022-09-24T05:57:34.953Z,99.90
2022-09-24T06:00:21.284Z,99.90
2022-09-24T06:03:12.657Z,99.90
2022-09-24T06:06:02.310Z,99.90
2022-09-24T06:08:48.782Z,99.90
2022-09-24T06:11:39.825Z,99.90
2022-09-24T06:14:28.192Z,99.90
2022-09-24T06:17:14.337Z,99.90
2022-09-24T06:20:00.263Z,99.90
2022-09-24T06:22:46.118Z,99.90
2022-09-24T06:25:32.197Z,99.90
2022-09-24T06:28:18.109Z,99.90
2022-09-24T06:31:04.912Z,99.90
2022-09-24T06:33:50.987Z,99.90
2022-09-24T06:36:37.092Z,99.90
2022-09-24T06:39:27.102Z,99.90
2022-09-24T06:42:13.013Z,99.90
2022-09-24T06:44:59.122Z,99.90
2022-09-24T06:47:45.862Z,99.90
2022-09-24T06:50:34.335Z,99.90
2022-09-24T06:53:20.937Z,99.90
2022-09-24T06:56:07.412Z,99.90
2022-09-24T06:58:54.243Z,99.90
2022-09-24T07:01:40.397Z,99.90
2022-09-24T07:04:26.558Z,99.90
2022-09-24T07:07:31.846Z,99.90
2022-09-24T07:10:19.228Z,99.90
2022-09-24T07:13:05.594Z,99.90
2022-09-24T07:15:52.874Z,99.90
2022-09-24T07:18:38.967Z,99.90
2022-09-24T07:21:25.240Z,99.90
2022-09-24T07:24:11.218Z,99.90
2022-09-24T07:26:57.198Z,99.90
2022-09-24T07:29:43.239Z,99.90
2022-09-24T07:32:30.253Z,99.90
2022-09-24T07:35:16.567Z,99.90
2022-09-24T07:38:05.476Z,99.90
2022-09-24T07:40:51.563Z,99.90
2022-09-24T07:43:38.607Z,99.90
2022-09-24T07:46:24.968Z,99.90
2022-09-24T07:49:10.968Z,99.90
2022-09-24T07:51:56.945Z,99.90
2022-09-24T07:54:43.069Z,99.90
2022-09-24T07:57:28.864Z,99.90
2022-09-24T08:00:17.352Z,99.90
2022-09-24T08:03:04.987Z,99.90
2022-09-24T08:05:50.909Z,99.90
2022-09-24T08:08:38.968Z,99.90
2022-09-24T08:11:25.219Z,99.90
2022-09-24T08:14:11.463Z,99.90
2022-09-24T08:16:57.486Z,99.90
2022-09-24T08:19:46.877Z,99.90
2022-09-24T08:22:33.782Z,99.90
2022-09-24T08:25:19.878Z,99.90
2022-09-24T08:28:07.449Z,99.90
2022-09-24T08:31:01.150Z,99.90
2022-09-24T08:33:50.870Z,99.90
2022-09-24T08:36:42.080Z,99.90
2022-09-24T08:39:28.976Z,99.90
2022-09-24T08:42:21.050Z,99.90
2022-09-24T08:45:28.286Z,99.90
2022-09-24T08:48:25.177Z,99.90
2022-09-24T08:51:18.035Z,99.90
2022-09-24T08:54:14.526Z,99.90
2022-09-24T08:57:05.705Z,99.90
2022-09-24T08:59:53.299Z,99.90
2022-09-24T09:02:47.234Z,99.90
2022-09-24T09:05:54.654Z,99.90
2022-09-24T09:09:06.837Z,99.90
2022-09-24T09:12:02.293Z,99.90
2022-09-24T09:15:03.321Z,99.90
2022-09-24T09:18:05.085Z,99.90
2022-09-24T09:20:51.709Z,99.90
2022-09-24T09:23:51.678Z,99.90
2022-09-24T09:26:38.024Z,99.90
2022-09-24T09:29:26.550Z,99.90
2022-09-24T09:32:31.386Z,99.90
2022-09-24T09:35:44.927Z,99.90
2022-09-24T09:39:00.889Z,99.90
2022-09-24T09:41:58.128Z,99.90
2022-09-24T09:44:46.225Z,99.90
2022-09-24T09:47:47.339Z,99.90
2022-09-24T09:50:52.079Z,99.90
2022-09-24T09:53:40.034Z,99.90
2022-09-24T09:56:34.293Z,99.90
2022-09-24T09:59:27.223Z,99.90
2022-09-24T10:02:27.277Z,99.90
2022-09-24T10:05:26.347Z,99.90
2022-09-24T10:08:24.121Z,99.90
2022-09-24T10:11:16.020Z,99.90
2022-09-24T10:14:09.032Z,99.90
2022-09-24T10:16:56.120Z,99.90
2022-09-24T10:19:47.752Z,99.90
2022-09-24T10:22:36.007Z,99.90
2022-09-24T10:25:28.501Z,99.90
2022-09-24T10:28:38.115Z,99.90
2022-09-24T10:31:27.227Z,99.90
2022-09-24T10:34:28.346Z,99.90
2022-09-24T10:37:18.958Z,99.90
2022-09-24T10:40:10.940Z,99.90
2022-09-24T10:43:05.640Z,99.90
2022-09-24T10:46:13.140Z,99.90
2022-09-24T10:49:15.511Z,99.90
2022-09-24T10:52:04.845Z,99.90
2022-09-24T10:55:06.335Z,99.90
2022-09-24T10:58:13.179Z,99.90
2022-09-24T11:01:23.239Z,99.90
2022-09-24T11:04:30.534Z,99.90
2022-09-24T11:07:39.485Z,99.90
2022-09-24T11:10:51.854Z,99.90
2022-09-24T11:13:54.500Z,99.90
2022-09-24T11:17:03.393Z,99.90
2022-09-24T11:20:36.939Z,99.90
2022-09-24T11:23:45.186Z,99.90
2022-09-24T11:26:57.859Z,99.90
2022-09-24T11:29:52.910Z,99.90
2022-09-24T11:32:54.207Z,99.90
2022-09-24T11:35:56.587Z,99.90
2022-09-24T11:38:53.076Z,99.90
2022-09-24T11:41:41.727Z,99.90
2022-09-24T11:45:02.328Z,99.90
2022-09-24T11:48:36.103Z,99.90
2022-09-24T11:51:43.316Z,99.90
2022-09-24T11:54:38.348Z,99.90
2022-09-24T11:57:33.676Z,99.90
2022-09-24T12:00:21.346Z,99.90
2022-09-24T12:03:34.355Z,99.90
2022-09-24T12:06:25.339Z,99.90
2022-09-24T12:09:33.386Z,99.90
2022-09-24T12:12:26.926Z,99.90
2022-09-24T12:15:20.972Z,99.90
2022-09-24T12:18:14.807Z,99.90
2022-09-24T12:21:09.812Z,99.90
2022-09-24T12:24:19.268Z,99.90
2022-09-24T12:27:15.494Z,99.90
2022-09-24T12:30:29.315Z,99.90
2022-09-24T12:33:21.099Z,99.90
2022-09-24T12:36:28.538Z,99.90
2022-09-24T12:39:18.985Z,99.90
2022-09-24T12:42:10.092Z,99.90
2022-09-24T12:44:59.479Z,99.90
2022-09-24T12:47:58.420Z,99.90
2022-09-24T12:50:58.807Z,99.90
2022-09-24T12:53:56.596Z,99.90
2022-09-24T12:56:42.656Z,99.90
2022-09-24T12:59:29.007Z,99.90
2022-09-24T13:02:18.573Z,99.90
2022-09-24T13:05:23.144Z,99.90
2022-09-24T13:08:18.017Z,99.90
2022-09-24T13:11:22.597Z,99.90
2022-09-24T13:14:19.687Z,99.90
2022-09-24T13:17:07.378Z,99.90
2022-09-24T13:19:59.272Z,99.90
2022-09-24T13:23:19.740Z,99.90
2022-09-24T13:26:09.193Z,99.90
2022-09-24T13:29:03.950Z,99.90
2022-09-24T13:32:02.855Z,99.90
2022-09-24T13:34:51.658Z,99.90
2022-09-24T13:37:43.814Z,99.90
2022-09-24T13:40:37.235Z,99.90
2022-09-24T13:44:05.489Z,99.90
2022-09-24T13:47:15.515Z,99.90
2022-09-24T13:50:12.856Z,99.90
2022-09-24T13:53:04.702Z,99.90
2022-09-24T13:55:54.840Z,99.90
2022-09-24T13:58:43.018Z,99.90
2022-09-24T14:01:30.853Z,99.90
2022-09-24T14:04:22.553Z,99.90
2022-09-24T14:07:09.495Z,99.90
2022-09-24T14:10:05.327Z,99.90
2022-09-24T14:13:13.345Z,99.90
2022-09-24T14:16:06.936Z,99.90
2022-09-24T14:19:04.543Z,99.90
2022-09-24T14:21:57.944Z,99.90
2022-09-24T14:24:56.275Z,99.90
2022-09-24T14:27:46.394Z,99.90
2022-09-24T14:30:35.818Z,99.90
2022-09-24T14:33:32.048Z,99.90
2022-09-24T14:36:18.933Z,99.90
2022-09-24T14:39:06.041Z,99.90
2022-09-24T14:41:53.352Z,99.90
2022-09-24T14:44:44.418Z,99.90
2022-09-24T14:47:33.335Z,99.90
2022-09-24T14:50:46.860Z,99.90
2022-09-24T14:53:35.434Z,99.90
2022-09-24T14:56:29.438Z,99.90
2022-09-24T14:59:26.595Z,99.90
2022-09-24T15:02:37.221Z,99.90
2022-09-24T15:05:29.151Z,99.90
2022-09-24T15:08:23.201Z,99.90
2022-09-24T15:11:18.024Z,99.90
2022-09-24T15:14:15.787Z,99.90
2022-09-24T15:17:10.688Z,99.90
2022-09-24T15:19:57.964Z,99.90
2022-09-24T15:22:46.214Z,99.90
2022-09-24T15:25:32.576Z,99.90
2022-09-24T15:28:18.983Z,99.90
2022-09-24T15:31:05.235Z,99.90
2022-09-24T15:33:52.277Z,99.90
2022-09-24T15:36:38.647Z,99.90
2022-09-24T15:39:26.252Z,99.90
2022-09-24T15:42:12.588Z,99.90
2022-09-24T15:44:58.973Z,99.90
2022-09-24T15:47:45.639Z,99.90
2022-09-24T15:50:31.917Z,99.90
2022-09-24T15:53:24.064Z,99.90
2022-09-24T15:56:10.266Z,99.90
2022-09-24T15:58:56.464Z,99.90
2022-09-24T16:01:43.319Z,99.90
2022-09-24T16:04:29.531Z,99.90
2022-09-24T16:07:15.557Z,99.90
2022-09-24T16:10:01.881Z,99.90
2022-09-24T16:12:47.919Z,99.90
2022-09-24T16:15:34.586Z,99.90
2022-09-24T16:18:25.873Z,99.90
2022-09-24T16:21:12.515Z,99.90
2022-09-24T16:24:00.265Z,99.90
2022-09-24T16:26:46.276Z,99.90
2022-09-24T16:29:32.991Z,99.90
2022-09-24T16:32:19.376Z,99.90
2022-09-24T16:35:06.249Z,99.90
2022-09-24T16:37:52.273Z,99.90
2022-09-24T16:40:39.183Z,99.90
2022-09-24T16:43:25.116Z,99.90
2022-09-24T16:46:14.186Z,99.90
2022-09-24T16:49:04.298Z,99.90
2022-09-24T16:51:50.333Z,99.90
2022-09-24T16:54:36.763Z,99.90
2022-09-24T16:57:22.878Z,99.90
2022-09-24T17:00:10.648Z,99.90
2022-09-24T17:02:57.042Z,99.90
2022-09-24T17:05:43.557Z,99.90
2022-09-24T17:08:51.264Z,99.90
2022-09-24T17:11:37.443Z,99.90
2022-09-24T17:14:24.174Z,99.90
2022-09-24T17:17:10.504Z,99.90
2022-09-24T17:19:56.390Z,99.90
2022-09-24T17:22:42.771Z,99.90
2022-09-24T17:25:28.863Z,99.90
2022-09-24T17:28:15.157Z,99.90
2022-09-24T17:31:01.680Z,99.90
2022-09-24T17:33:58.232Z,99.90
2022-09-24T17:36:44.314Z,99.90
2022-09-24T17:39:30.894Z,99.90
2022-09-24T17:42:17.208Z,99.90
2022-09-24T17:45:03.686Z,99.90
2022-09-24T17:48:00.409Z,99.90
2022-09-24T17:50:53.664Z,99.90
2022-09-24T17:53:40.603Z,99.90
2022-09-24T17:56:28.765Z,99.90
2022-09-24T17:59:15.264Z,99.90
2022-09-24T18:02:01.616Z,99.90
2022-09-24T18:04:47.605Z,99.90
2022-09-24T18:07:33.551Z,99.90
2022-09-24T18:10:19.639Z,99.90
2022-09-24T18:13:06.767Z,99.90
2022-09-24T18:15:53.087Z,99.90
2022-09-24T18:18:39.777Z,99.90
2022-09-24T18:21:26.259Z,99.90
2022-09-24T18:24:13.319Z,99.90
2022-09-24T18:26:59.711Z,99.90
2022-09-24T18:29:46.495Z,99.90
2022-09-24T18:32:32.688Z,99.90
2022-09-24T18:35:18.948Z,99.90
2022-09-24T18:38:04.955Z,99.90
2022-09-24T18:40:51.005Z,99.90
2022-09-24T18:43:37.696Z,99.90
2022-09-24T18:46:24.346Z,99.90
2022-09-24T18:49:11.921Z,99.90
2022-09-24T18:51:58.681Z,99.90
2022-09-24T18:54:44.887Z,99.90
2022-09-24T18:57:31.608Z,99.90
2022-09-24T19:00:36.579Z,99.90
2022-09-24T19:03:23.603Z,99.90
2022-09-24T19:06:12.746Z,99.90
2022-09-24T19:08:59.562Z,99.90
2022-09-24T19:11:47.064Z,99.90
2022-09-24T19:14:33.251Z,99.90
2022-09-24T19:17:19.391Z,99.90
2022-09-24T19:20:05.998Z,99.90
2022-09-24T19:22:59.926Z,99.90
2022-09-24T19:25:45.905Z,99.90
2022-09-24T19:28:32.046Z,99.90
2022-09-24T19:31:30.386Z,99.90
2022-09-24T19:34:16.556Z,99.90
2022-09-24T19:37:03.194Z,99.90
2022-09-24T19:39:49.085Z,99.90
2022-09-24T19:42:35.062Z,99.90
2022-09-24T19:45:21.258Z,99.90
2022-09-24T19:48:07.116Z,99.90
2022-09-24T19:50:54.721Z,99.90
2022-09-24T19:53:42.164Z,99.90
2022-09-24T19:56:29.194Z,99.90
2022-09-24T19:59:16.360Z,99.90
2022-09-24T20:02:02.933Z,99.90
2022-09-24T20:04:49.317Z,99.90
2022-09-24T20:07:35.491Z,99.90
2022-09-24T20:10:21.963Z,99.90
2022-09-24T20:13:11.775Z,99.90
2022-09-24T20:16:00.054Z,99.90
2022-09-24T20:18:47.993Z,99.90
2022-09-24T20:21:35.378Z,99.90
2022-09-24T20:24:22.760Z,99.90
2022-09-24T20:27:32.886Z,99.90
2022-09-24T20:30:21.371Z,99.90
2022-09-24T20:33:09.406Z,99.90
2022-09-24T20:36:02.278Z,99.90
2022-09-24T20:38:48.640Z,99.90
2022-09-24T20:41:35.026Z,99.90
2022-09-24T20:44:22.125Z,99.90
2022-09-24T20:47:09.518Z,99.90
2022-09-24T20:49:55.851Z,99.90
2022-09-24T20:52:42.013Z,99.90
2022-09-24T20:55:28.103Z,99.90
2022-09-24T20:58:15.659Z,99.90
2022-09-24T21:01:02.525Z,99.90
2022-09-24T21:03:50.098Z,99.90
2022-09-24T21:06:37.295Z,99.90
2022-09-24T21:09:23.413Z,99.90
2022-09-24T21:12:09.391Z,99.90
2022-09-24T21:14:55.991Z,99.90
2022-09-24T21:17:54.693Z,99.90
2022-09-24T21:20:49.771Z,99.90
2022-09-24T21:23:37.933Z,99.90
2022-09-24T21:26:29.884Z,99.90
2022-09-24T21:29:18.315Z,99.90
2022-09-24T21:32:04.631Z,99.90
2022-09-24T21:34:50.642Z,99.90
2022-09-24T21:37:38.523Z,99.90
2022-09-24T21:40:24.823Z,99.90
2022-09-24T21:43:10.636Z,99.90
2022-09-24T21:46:06.772Z,99.90
2022-09-24T21:48:54.982Z,99.90
2022-09-24T21:51:41.957Z,99.90
2022-09-24T21:54:30.322Z,99.90
2022-09-24T21:57:16.194Z,99.90
2022-09-24T22:00:04.376Z,99.90
2022-09-24T22:02:50.906Z,99.90
2022-09-24T22:05:43.839Z,99.90
2022-09-24T22:08:32.100Z,99.90
2022-09-24T22:11:19.093Z,99.90
2022-09-24T22:14:05.412Z,99.90
2022-09-24T22:16:51.860Z,99.90
2022-09-24T22:19:38.252Z,99.90
2022-09-24T22:22:24.088Z,99.90
2022-09-24T22:25:10.307Z,99.90
2022-09-24T22:27:56.506Z,99.90
2022-09-24T22:30:44.661Z,99.90
2022-09-24T22:33:50.091Z,99.90
2022-09-24T22:36:36.195Z,99.90
2022-09-24T22:39:22.620Z,99.90
2022-09-24T22:42:08.571Z,99.90
2022-09-24T22:44:55.809Z,99.90
2022-09-24T22:47:42.496Z,99.90
2022-09-24T22:50:29.046Z,99.90
2022-09-24T22:53:15.346Z,99.90
2022-09-24T22:56:04.815Z,99.90
2022-09-24T22:58:59.280Z,99.90
2022-09-24T23:01:45.539Z,99.90
2022-09-24T23:04:33.160Z,99.90
2022-09-24T23:07:19.433Z,99.90
2022-09-24T23:10:06.582Z,99.90
2022-09-24T23:12:52.611Z,99.90
2022-09-24T23:15:38.549Z,99.90
2022-09-24T23:18:24.482Z,99.90
2022-09-24T23:21:13.030Z,99.90
2022-09-24T23:24:05.519Z,99.90
2022-09-24T23:26:53.130Z,99.90
2022-09-24T23:29:39.450Z,99.90
2022-09-24T23:32:25.836Z,99.90
2022-09-24T23:35:12.202Z,99.90
2022-09-24T23:37:58.298Z,99.90
2022-09-24T23:40:44.569Z,99.90
2022-09-24T23:43:30.996Z,99.90
2022-09-24T23:46:17.756Z,99.90
2022-09-24T23:49:04.223Z,99.90
2022-09-24T23:51:50.635Z,99.90
2022-09-24T23:54:40.320Z,99.90
2022-09-24T23:57:26.287Z,99.90
